Time;durP1;ratioP1;P1;durP2;ratioP2;P2;SDS_P1;SDS_P2;PMS_P1;PMS_P2;Temp;Humidity;BMP_temperature;BMP_pressure;BME280_temperature;BME280_humidity;BME280_pressure;Samples;Min_cycle;Max_cycle;Signal;HPM_P1;HPM_P2
2023/08/16 00:01:47;;;;;;;9.32;8.15;;;;;;;21.82;78.42;98366.69;4926179;29;20051;-82
2023/08/16 00:04:16;;;;;;;8.50;7.78;;;;;;;22.35;78.17;98450.94;4939421;29;20095;-83
2023/08/16 00:06:42;;;;;;;9.20;7.65;;;;;;;22.40;78.42;98461.81;4945601;28;20060;-84
2023/08/16 00:09:13;;;;;;;9.10;7.07;;;;;;;22.34;78.15;98443.84;5024924;28;20034;-83
2023/08/16 00:12:28;;;;;;;11.43;8.23;;;;;;;22.26;77.91;98441.88;5037002;28;20044;-84
2023/08/16 00:14:53;;;;;;;10.07;7.13;;;;;;;22.09;78.34;98414.31;5020454;28;20124;-85
2023/08/16 00:17:19;;;;;;;8.10;7.18;;;;;;;21.87;78.18;98382.22;5036725;28;20057;-83
2023/08/16 00:19:44;;;;;;;8.27;7.47;;;;;;;22.08;78.47;98404.47;5033724;28;20038;-83
2023/08/16 00:22:10;;;;;;;11.52;7.38;;;;;;;22.30;78.68;98420.88;5004159;28;20040;-83
2023/08/16 00:24:36;;;;;;;12.00;8.45;;;;;;;22.18;78.48;98401.44;5034479;28;20033;-84
2023/08/16 00:27:01;;;;;;;11.52;8.35;;;;;;;22.52;79.00;98448.31;4998759;28;20026;-84
2023/08/16 00:29:27;;;;;;;10.85;8.93;;;;;;;22.21;79.19;98401.66;5020864;28;20096;-83
2023/08/16 00:31:52;;;;;;;10.00;8.90;;;;;;;21.92;79.00;98360.97;5036795;28;20013;-83
2023/08/16 00:34:18;;;;;;;11.50;8.73;;;;;;;22.37;79.17;98421.25;5036719;28;20103;-84
2023/08/16 00:36:44;;;;;;;9.68;7.95;;;;;;;22.53;79.44;98447.16;5015369;28;20026;-83
2023/08/16 00:39:09;;;;;;;10.95;7.95;;;;;;;22.56;78.88;98457.53;4998504;28;20444;-83
2023/08/16 00:41:35;;;;;;;11.50;7.47;;;;;;;22.16;78.90;98393.53;5018379;28;20022;-83
2023/08/16 00:44:00;;;;;;;8.00;7.18;;;;;;;22.01;79.41;98375.53;5038351;28;20281;-83
2023/08/16 00:46:27;;;;;;;11.02;8.10;;;;;;;22.41;79.49;98427.72;5005479;28;20017;-82
2023/08/16 00:48:54;;;;;;;11.77;7.50;;;;;;;22.49;79.20;98435.19;5037514;28;20064;-81
2023/08/16 00:51:19;;;;;;;8.88;7.72;;;;;;;22.56;78.90;98446.53;5037442;28;20399;-82
2023/08/16 00:53:45;;;;;;;8.85;7.95;;;;;;;22.52;78.67;98445.56;5020618;28;20068;-83
2023/08/16 00:56:13;;;;;;;10.05;7.22;;;;;;;22.07;78.92;98372.66;5037088;28;20025;-81
2023/08/16 00:58:38;;;;;;;9.20;7.90;;;;;;;21.96;78.85;98356.47;5000916;28;20484;-80
2023/08/16 01:01:04;;;;;;;8.27;7.32;;;;;;;22.36;78.86;98428.66;5017366;28;20032;-82
2023/08/16 01:16:22;;;;;;;;;;;;;;;;;;;;;
2023/08/16 01:19:37;;;;;;;12.70;10.75;;;;;;;21.30;79.23;98321.66;4917515;29;20111;-80
2023/08/16 01:22:22;;;;;;;13.07;11.05;;;;;;;21.17;79.81;98316.22;4999020;28;20046;-79
2023/08/16 01:25:52;;;;;;;11.23;8.77;;;;;;;21.41;79.45;98366.06;5028402;28;20050;-83
2023/08/16 01:40:38;;;;;;;12.73;9.50;;;;;;;21.52;79.81;98399.53;4927608;29;20044;-81
2023/08/16 01:50:46;;;;;;;10.57;9.45;;;;;;;21.50;80.49;98435.47;4964293;28;20039;-84
2023/08/16 01:54:44;;;;;;;11.35;10.20;;;;;;;21.48;80.33;98436.88;4970651;28;20054;-83
2023/08/16 01:59:03;;;;;;;11.02;9.10;;;;;;;21.33;80.31;98438.06;4962872;28;20073;-83
2023/08/16 02:01:37;;;;;;;9.45;7.93;;;;;;;21.01;80.50;98373.25;4930695;29;20040;-80
2023/08/16 02:04:02;;;;;;;10.10;9.02;;;;;;;21.36;80.42;98437.44;4895493;29;20187;-79
2023/08/16 02:06:55;;;;;;;10.80;8.85;;;;;;;21.42;80.39;98435.38;4971341;28;20037;-81
2023/08/16 02:13:22;;;;;;;10.77;9.27;;;;;;;21.40;80.96;98430.19;4993963;28;20124;-80
2023/08/16 02:27:53;;;;;;;14.10;8.27;;;;;;;21.17;80.91;98431.28;5028439;28;20577;-81
2023/08/16 02:31:38;;;;;;;9.55;8.60;;;;;;;20.94;80.59;98405.72;5030794;28;20080;-81
2023/08/16 02:35:14;;;;;;;9.73;8.48;;;;;;;21.20;80.74;98431.47;5028711;28;20045;-82
2023/08/16 02:39:08;;;;;;;10.48;9.40;;;;;;;21.20;80.85;98436.16;5022425;28;20079;-81
2023/08/16 02:46:51;;;;;;;16.83;13.43;;;;;;;20.71;82.20;98430.56;4908955;29;20557;-83
2023/08/16 03:15:12;;;;;;;16.95;12.93;;;;;;;20.04;81.50;98307.13;6195299;22;20318;-80
2023/08/16 03:17:40;;;;;;;10.70;9.65;;;;;;;20.23;81.22;98340.69;5006351;28;20042;-84
2023/08/16 03:24:52;;;;;;;;;;;;;;;;;;;;;
2023/08/16 03:28:17;;;;;;;11.23;9.80;;;;;;;20.75;81.96;98428.88;4977463;28;20088;-82
2023/08/16 03:48:17;;;;;;;10.93;9.82;;;;;;;20.30;82.98;98373.94;5290557;22;20502;-81
2023/08/16 03:51:27;;;;;;;14.55;10.30;;;;;;;20.26;83.03;98386.56;5051858;28;20093;-84
2023/08/16 03:58:44;;;;;;;10.85;9.02;;;;;;;20.16;82.74;98405.06;5025502;28;20095;-83
2023/08/16 04:01:58;;;;;;;10.57;9.50;;;;;;;20.15;82.99;98400.69;4950814;28;20457;-82
2023/08/16 04:04:36;;;;;;;9.43;8.43;;;;;;;19.88;82.82;98355.00;4961549;28;20047;-83
2023/08/16 04:07:07;;;;;;;9.55;8.45;;;;;;;20.45;82.67;98450.22;5051895;28;20114;-80
2023/08/16 04:09:33;;;;;;;14.40;10.35;;;;;;;20.51;82.38;98459.94;5009389;28;20534;-83
2023/08/16 04:11:59;;;;;;;17.33;9.88;;;;;;;20.36;82.03;98452.03;5003927;28;20018;-83
2023/08/16 04:14:26;;;;;;;10.80;9.10;;;;;;;20.46;81.91;98471.00;5007685;28;20379;-81
2023/08/16 04:16:51;;;;;;;13.55;11.77;;;;;;;20.08;81.85;98414.75;5013131;28;20030;-80
2023/08/16 04:19:17;;;;;;;12.25;10.05;;;;;;;20.18;81.85;98431.00;5010738;28;20119;-80
2023/08/16 04:22:01;;;;;;;11.05;9.88;;;;;;;20.08;81.71;98431.19;5029426;28;20496;-80
2023/08/16 04:24:40;;;;;;;15.60;11.25;;;;;;;19.66;81.66;98373.94;5028671;28;20088;-80
2023/08/16 04:27:38;;;;;;;12.07;9.38;;;;;;;19.67;81.85;98378.31;5023173;28;20037;-79
2023/08/16 04:30:33;;;;;;;14.43;10.80;;;;;;;19.76;82.03;98390.19;5002216;28;20077;-79
2023/08/16 04:32:59;;;;;;;12.45;11.13;;;;;;;20.22;82.12;98478.56;4999756;28;20049;-84
2023/08/16 04:35:25;;;;;;;14.88;13.30;;;;;;;20.05;82.71;98474.72;4989373;28;20112;-81
2023/08/16 04:37:57;;;;;;;14.98;11.98;;;;;;;19.84;82.52;98441.41;4973396;28;20519;-80
2023/08/16 04:40:31;;;;;;;14.23;11.32;;;;;;;20.02;82.27;98465.19;5011731;28;20046;-83
2023/08/16 04:42:56;;;;;;;13.73;12.35;;;;;;;20.18;82.42;98491.19;4979518;28;20207;-82
2023/08/16 04:45:30;;;;;;;10.88;9.77;;;;;;;20.22;82.54;98486.75;4991251;28;20045;-81
2023/08/16 04:47:56;;;;;;;13.20;10.43;;;;;;;20.14;82.86;98473.72;4996762;28;20037;-81
2023/08/16 04:50:22;;;;;;;13.45;10.43;;;;;;;20.20;82.67;98486.22;4960702;28;20030;-83
2023/08/16 04:53:04;;;;;;;18.90;10.35;;;;;;;20.06;82.33;98459.94;5007153;28;20555;-82
2023/08/16 04:55:50;;;;;;;13.82;10.63;;;;;;;19.85;82.60;98421.19;5044641;28;20044;-79
2023/08/16 04:58:15;;;;;;;14.35;10.18;;;;;;;20.13;82.36;98452.16;5022840;28;20060;-81
2023/08/16 05:00:46;;;;;;;9.98;8.93;;;;;;;20.38;82.37;98485.38;4982478;28;20488;-80
2023/08/16 05:03:12;;;;;;;13.23;9.85;;;;;;;20.38;82.67;98474.44;5012711;28;20086;-80
2023/08/16 05:05:38;;;;;;;15.75;13.52;;;;;;;20.49;83.11;98503.22;5002230;28;20049;-83
2023/08/16 05:08:04;;;;;;;15.55;12.30;;;;;;;20.32;82.96;98470.19;5016107;28;20033;-83
2023/08/16 05:10:29;;;;;;;17.30;13.93;;;;;;;20.49;83.85;98508.69;5029290;28;20018;-83
2023/08/16 05:12:57;;;;;;;17.73;13.38;;;;;;;20.16;83.55;98460.59;5009598;28;20119;-80
2023/08/16 05:15:22;;;;;;;15.38;13.25;;;;;;;20.31;84.29;98516.97;5021453;28;20033;-82
2023/08/16 05:17:53;;;;;;;16.50;12.50;;;;;;;20.42;83.85;98519.22;5008167;28;20036;-83
2023/08/16 05:20:18;;;;;;;13.68;11.60;;;;;;;20.56;83.06;98519.28;5026883;28;20483;-78
2023/08/16 05:22:44;;;;;;;12.63;10.95;;;;;;;20.54;83.33;98516.81;5036023;28;20025;-77
2023/08/16 05:25:17;;;;;;;14.88;12.25;;;;;;;20.60;83.29;98504.69;5020505;28;20041;-81
2023/08/16 05:28:01;;;;;;;17.92;12.43;;;;;;;20.68;83.11;98520.41;5021394;28;20076;-84
2023/08/16 05:30:27;;;;;;;14.63;12.82;;;;;;;20.77;83.59;98530.66;5030977;28;20052;-83
2023/08/16 05:32:54;;;;;;;16.90;12.93;;;;;;;20.87;83.91;98539.50;5005690;28;20030;-83
2023/08/16 05:35:21;;;;;;;16.58;13.13;;;;;;;20.91;83.67;98542.44;5020162;28;20048;-82
2023/08/16 05:37:58;;;;;;;14.35;12.88;;;;;;;20.93;83.83;98545.69;5023148;28;20025;-83
2023/08/16 05:40:57;;;;;;;14.48;13.07;;;;;;;20.71;83.61;98504.47;5038799;28;20392;-84
2023/08/16 05:43:43;;;;;;;14.57;13.02;;;;;;;21.04;84.06;98563.53;5043498;28;20600;-82
2023/08/16 05:46:08;;;;;;;15.43;12.50;;;;;;;21.04;83.77;98541.63;5005850;28;20024;-83
2023/08/16 05:48:34;;;;;;;12.65;11.52;;;;;;;20.97;83.03;98514.66;5024884;28;20041;-81
2023/08/16 05:51:00;;;;;;;12.93;11.63;;;;;;;21.35;83.28;98556.38;5009205;28;20030;-82
2023/08/16 05:53:40;;;;;;;13.05;11.82;;;;;;;20.90;83.34;98486.03;5039076;28;20029;-82
2023/08/16 05:56:05;;;;;;;14.25;11.43;;;;;;;20.93;83.54;98485.44;5006417;28;20494;-82
2023/08/16 05:58:31;;;;;;;11.93;10.75;;;;;;;21.51;83.14;98551.41;5023054;28;20044;-82
2023/08/16 06:01:00;;;;;;;11.27;10.00;;;;;;;21.68;83.19;98552.38;5025157;28;20025;-82
2023/08/16 06:03:26;;;;;;;12.27;10.98;;;;;;;21.34;82.76;98480.78;5026424;28;20126;-83
2023/08/16 06:05:56;;;;;;;13.77;12.15;;;;;;;21.60;82.61;98522.13;5013464;28;20504;-82
2023/08/16 06:08:22;;;;;;;12.48;11.18;;;;;;;21.59;82.73;98510.34;4996675;28;20091;-83
2023/08/16 06:10:48;;;;;;;14.15;10.82;;;;;;;21.64;82.62;98502.03;5015974;28;20542;-84
2023/08/16 06:13:13;;;;;;;12.65;10.88;;;;;;;21.59;82.19;98482.13;5015436;28;20025;-83
2023/08/16 06:15:38;;;;;;;12.60;11.30;;;;;;;21.86;81.76;98521.28;5026125;28;20017;-81
2023/08/16 06:18:04;;;;;;;13.98;10.65;;;;;;;21.79;81.46;98512.66;5012704;28;20044;-82
2023/08/16 06:20:29;;;;;;;11.20;10.10;;;;;;;21.75;81.00;98491.66;5005236;28;20075;-81
2023/08/16 06:22:55;;;;;;;12.38;10.02;;;;;;;21.96;80.77;98525.75;5034632;28;20072;-81
2023/08/16 06:25:20;;;;;;;11.57;10.38;;;;;;;21.85;80.93;98503.22;5021120;28;20029;-81
2023/08/16 06:27:46;;;;;;;11.30;10.13;;;;;;;21.75;80.39;98486.94;5005505;28;20539;-82
2023/08/16 06:30:12;;;;;;;11.55;10.40;;;;;;;22.28;80.24;98566.66;5026303;28;20400;-83
2023/08/16 06:32:37;;;;;;;12.18;9.27;;;;;;;22.25;79.97;98556.31;5010298;28;20100;-82
2023/08/16 06:35:05;;;;;;;11.80;9.88;;;;;;;22.41;80.11;98570.44;5029645;28;20059;-84
2023/08/16 06:37:31;;;;;;;11.63;10.43;;;;;;;22.54;79.71;98573.13;5029143;28;20040;-83
2023/08/16 06:39:56;;;;;;;10.75;9.65;;;;;;;22.35;79.41;98534.09;5021352;28;20033;-83
2023/08/16 06:42:22;;;;;;;10.88;9.88;;;;;;;22.51;79.59;98543.56;5033873;28;20403;-83
2023/08/16 06:44:55;;;;;;;11.82;10.63;;;;;;;22.62;79.35;98555.13;5029332;28;20040;-82
2023/08/16 06:47:20;;;;;;;11.85;10.60;;;;;;;22.59;79.31;98545.53;5018178;28;20065;-83
2023/08/16 06:49:46;;;;;;;11.32;9.35;;;;;;;22.71;79.74;98552.44;5018140;28;20079;-78
2023/08/16 06:52:11;;;;;;;11.85;10.52;;;;;;;22.47;79.52;98508.84;5021022;28;20029;-83
2023/08/16 06:54:36;;;;;;;13.38;10.40;;;;;;;22.50;79.80;98530.97;5020774;28;20734;-83
2023/08/16 06:57:02;;;;;;;11.02;9.93;;;;;;;22.58;79.70;98556.84;4999895;28;20018;-81
2023/08/16 06:59:29;;;;;;;11.60;9.80;;;;;;;22.82;79.30;98562.84;5029366;28;20472;-82
2023/08/16 07:01:55;;;;;;;11.35;10.20;;;;;;;22.78;79.70;98550.84;5019455;28;20024;-84
2023/08/16 07:04:20;;;;;;;10.93;9.80;;;;;;;22.80;79.22;98550.56;5018872;28;20037;-83
2023/08/16 07:06:46;;;;;;;10.73;9.27;;;;;;;22.84;79.24;98541.38;5028815;28;20126;-81
2023/08/16 07:09:11;;;;;;;12.15;10.60;;;;;;;22.94;78.99;98563.06;5024848;28;20037;-82
2023/08/16 07:11:36;;;;;;;12.10;10.00;;;;;;;22.84;78.72;98541.38;5024956;28;20161;-83
2023/08/16 07:14:03;;;;;;;12.05;9.75;;;;;;;22.93;79.07;98542.22;5014399;28;20124;-83
2023/08/16 07:16:39;;;;;;;10.63;9.52;;;;;;;23.19;78.75;98547.81;5025398;28;20018;-83
2023/08/16 07:19:08;;;;;;;12.38;9.75;;;;;;;22.99;77.93;98505.22;5017824;28;20033;-83
2023/08/16 07:21:34;;;;;;;9.05;8.15;;;;;;;23.25;77.79;98500.63;5025530;28;20026;-83
2023/08/16 07:24:00;;;;;;;9.15;8.18;;;;;;;23.50;77.36;98499.09;5001357;28;20037;-83
2023/08/16 07:26:25;;;;;;;9.70;8.68;;;;;;;23.79;76.73;98545.25;5034373;28;20025;-83
2023/08/16 07:28:50;;;;;;;9.02;8.13;;;;;;;23.83;76.66;98535.22;5005293;28;20029;-82
2023/08/16 07:31:16;;;;;;;11.30;9.27;;;;;;;23.89;76.51;98533.94;5002378;28;20026;-83
2023/08/16 07:34:33;;;;;;;10.70;9.05;;;;;;;23.42;75.98;98457.84;5004767;28;20034;-82
2023/08/16 07:37:03;;;;;;;9.60;8.60;;;;;;;23.78;76.17;98510.63;5025686;28;20037;-82
2023/08/16 07:39:31;;;;;;;9.55;8.63;;;;;;;24.09;76.08;98538.81;5008047;28;20115;-81
2023/08/16 07:41:56;;;;;;;9.35;8.35;;;;;;;24.15;75.05;98537.56;5013999;28;20048;-81
2023/08/16 07:44:22;;;;;;;13.20;8.90;;;;;;;24.20;75.25;98534.59;5030674;28;20028;-82
2023/08/16 07:46:47;;;;;;;9.07;7.95;;;;;;;24.38;74.92;98543.69;5002375;28;20033;-79
2023/08/16 07:49:12;;;;;;;9.55;8.40;;;;;;;24.46;74.42;98531.81;5015270;28;20029;-81
2023/08/16 07:51:38;;;;;;;10.70;8.80;;;;;;;24.49;73.97;98539.44;5000986;28;20120;-78
2023/08/16 07:54:03;;;;;;;10.50;8.52;;;;;;;24.55;73.74;98527.91;5016075;28;20565;-78
2023/08/16 07:56:29;;;;;;;10.88;8.75;;;;;;;24.64;73.79;98545.22;5016544;28;20033;-78
2023/08/16 07:58:54;;;;;;;10.25;9.20;;;;;;;24.69;73.32;98536.81;5013873;28;20031;-83
2023/08/16 08:01:20;;;;;;;10.00;9.02;;;;;;;24.91;73.15;98554.28;5019194;28;20079;-82
2023/08/16 08:03:46;;;;;;;10.52;8.80;;;;;;;25.00;73.31;98552.31;5000052;28;20661;-82
2023/08/16 08:06:12;;;;;;;10.05;9.13;;;;;;;24.93;73.08;98536.28;5001533;28;20044;-81
2023/08/16 08:08:37;;;;;;;9.45;8.55;;;;;;;24.94;73.79;98539.84;5000098;28;20025;-83
2023/08/16 08:11:07;;;;;;;9.00;8.18;;;;;;;25.01;73.65;98505.13;5027425;28;20133;-82
2023/08/16 08:13:33;;;;;;;10.18;9.18;;;;;;;24.92;72.65;98487.00;5026551;28;20021;-82
2023/08/16 08:16:00;;;;;;;10.82;9.07;;;;;;;25.38;71.94;98545.66;5026560;28;20063;-82
2023/08/16 08:18:25;;;;;;;10.15;9.25;;;;;;;25.61;71.97;98546.22;5016675;28;20049;-84
2023/08/16 08:20:51;;;;;;;10.43;9.45;;;;;;;25.66;72.34;98531.41;5030383;28;20037;-82
2023/08/16 08:23:16;;;;;;;16.15;10.52;;;;;;;25.62;70.42;98498.19;5014927;28;20051;-83
2023/08/16 08:25:44;;;;;;;12.98;11.63;;;;;;;25.98;69.35;98530.69;5025466;28;20088;-82
2023/08/16 08:28:10;;;;;;;15.95;11.55;;;;;;;25.89;68.31;98530.75;5008391;28;20017;-83
2023/08/16 08:30:35;;;;;;;12.98;11.60;;;;;;;26.15;68.09;98549.91;5027083;28;20401;-82
2023/08/16 08:33:01;;;;;;;15.18;11.60;;;;;;;26.16;67.87;98523.13;5013679;28;20017;-83
2023/08/16 08:35:27;;;;;;;13.88;12.25;;;;;;;26.12;66.92;98500.06;5041592;28;20061;-82
2023/08/16 08:37:53;;;;;;;15.38;11.73;;;;;;;26.47;66.97;98528.97;5024228;28;20029;-83
2023/08/16 08:40:20;;;;;;;13.70;11.63;;;;;;;26.53;66.54;98538.69;5037435;28;20403;-82
2023/08/16 08:42:47;;;;;;;13.32;11.02;;;;;;;26.72;67.02;98558.34;5003863;28;20021;-81
2023/08/16 08:45:16;;;;;;;13.23;10.50;;;;;;;26.56;65.65;98546.28;4998141;28;20049;-82
2023/08/16 08:47:43;;;;;;;15.07;12.40;;;;;;;26.41;65.59;98524.81;5017529;28;20021;-83
2023/08/16 08:50:10;;;;;;;11.60;10.40;;;;;;;26.73;65.25;98549.69;5028011;28;20040;-83
2023/08/16 08:52:35;;;;;;;11.60;10.40;;;;;;;26.85;65.00;98546.19;5033628;28;20021;-83
2023/08/16 08:55:03;;;;;;;9.32;7.95;;;;;;;26.90;63.81;98545.97;5011597;28;20039;-81
2023/08/16 08:57:30;;;;;;;9.93;8.50;;;;;;;26.99;62.94;98546.66;5012578;28;20026;-82
2023/08/16 09:00:02;;;;;;;9.82;7.82;;;;;;;27.14;61.77;98520.31;5019734;28;20068;-82
2023/08/16 09:02:30;;;;;;;10.20;6.90;;;;;;;27.40;60.63;98546.50;5007192;28;20546;-81
2023/08/16 09:04:59;;;;;;;8.82;7.03;;;;;;;27.70;58.95;98551.81;5023872;28;20071;-82
2023/08/16 09:07:29;;;;;;;7.53;6.30;;;;;;;27.90;58.51;98537.81;5046517;28;20037;-81
2023/08/16 09:09:55;;;;;;;7.22;6.50;;;;;;;28.03;58.02;98549.66;5006006;28;20088;-82
2023/08/16 09:12:21;;;;;;;8.95;6.80;;;;;;;27.94;58.25;98526.81;5028285;28;20022;-80
2023/08/16 09:14:47;;;;;;;7.38;6.35;;;;;;;27.83;56.95;98509.09;5012428;28;20550;-83
2023/08/16 09:17:13;;;;;;;8.00;6.00;;;;;;;27.94;56.08;98548.97;5010815;28;20055;-81
2023/08/16 09:19:43;;;;;;;7.93;6.13;;;;;;;27.74;56.52;98491.81;5013999;28;20030;-83
2023/08/16 09:22:10;;;;;;;6.53;5.85;;;;;;;27.98;56.95;98511.91;5027766;28;20025;-83
2023/08/16 09:24:35;;;;;;;6.57;5.90;;;;;;;28.33;55.99;98537.13;5003068;28;20022;-83
2023/08/16 09:27:00;;;;;;;6.10;5.47;;;;;;;28.26;54.80;98534.16;5028912;28;20420;-83
2023/08/16 09:29:26;;;;;;;5.82;4.90;;;;;;;28.16;54.52;98512.50;5029792;28;20041;-82
2023/08/16 09:31:51;;;;;;;5.30;4.72;;;;;;;28.22;54.77;98494.44;5023432;28;20108;-81
2023/08/16 09:34:20;;;;;;;5.25;4.45;;;;;;;28.60;53.75;98522.47;5019045;28;20469;-83
2023/08/16 09:36:48;;;;;;;4.78;4.28;;;;;;;28.52;53.44;98492.91;4996363;28;20447;-83
2023/08/16 09:39:14;;;;;;;6.47;4.75;;;;;;;28.65;53.85;98491.72;5023435;28;20025;-82
2023/08/16 09:41:50;;;;;;;6.63;4.85;;;;;;;28.79;53.47;98523.75;5022708;28;20099;-83
2023/08/16 09:44:16;;;;;;;6.95;5.00;;;;;;;28.83;54.63;98530.19;5021978;28;20041;-83
2023/08/16 09:46:42;;;;;;;6.20;5.60;;;;;;;28.54;53.11;98511.97;5007483;28;20056;-83
2023/08/16 09:49:12;;;;;;;6.35;5.63;;;;;;;28.26;54.31;98500.91;5029256;28;20184;-82
2023/08/16 09:51:40;;;;;;;8.27;7.45;;;;;;;28.21;58.22;98523.31;5025194;28;20052;-83
2023/08/16 09:54:14;;;;;;;8.15;6.80;;;;;;;28.09;58.91;98531.66;5021209;28;20483;-83
2023/08/16 09:56:41;;;;;;;8.43;6.80;;;;;;;27.74;60.33;98483.50;5005169;28;20451;-83
2023/08/16 09:59:08;;;;;;;8.18;7.28;;;;;;;27.73;60.21;98495.72;5008935;28;20399;-83
2023/08/16 10:01:37;;;;;;;8.77;7.68;;;;;;;27.53;61.46;98493.91;4988087;28;20034;-84
2023/08/16 10:04:03;;;;;;;10.35;8.10;;;;;;;27.61;62.65;98532.53;4994051;28;20034;-83
2023/08/16 10:06:33;;;;;;;8.85;7.95;;;;;;;27.53;61.65;98522.41;5003116;28;20067;-83
2023/08/16 10:08:59;;;;;;;9.73;8.25;;;;;;;27.39;62.80;98517.22;5010703;28;20052;-84
2023/08/16 10:11:26;;;;;;;8.98;7.70;;;;;;;27.14;63.42;98487.91;5029712;28;20037;-82
2023/08/16 10:13:52;;;;;;;9.98;8.43;;;;;;;27.03;64.33;98491.47;5013012;28;20022;-83
2023/08/16 10:16:22;;;;;;;8.65;7.78;;;;;;;27.27;65.59;98532.97;5023727;28;20040;-83
2023/08/16 10:18:50;;;;;;;9.40;8.18;;;;;;;27.10;65.62;98492.53;5009453;28;20036;-83
2023/08/16 10:21:17;;;;;;;8.20;7.45;;;;;;;27.25;65.83;98527.81;5026876;28;20026;-84
2023/08/16 10:23:44;;;;;;;8.65;7.40;;;;;;;27.20;65.64;98522.50;5032416;28;20404;-83
2023/08/16 10:26:19;;;;;;;8.32;7.38;;;;;;;27.04;66.11;98493.09;5032440;28;20120;-82
2023/08/16 10:28:59;;;;;;;9.43;7.95;;;;;;;26.98;66.05;98489.75;5013781;28;20029;-85
2023/08/16 10:31:29;;;;;;;10.88;8.40;;;;;;;27.03;66.28;98486.75;5008642;28;20045;-83
2023/08/16 10:33:57;;;;;;;10.35;7.85;;;;;;;27.34;65.12;98491.72;5009849;28;20034;-83
2023/08/16 10:36:23;;;;;;;9.23;8.35;;;;;;;27.80;64.30;98520.84;5028176;28;20067;-81
2023/08/16 10:38:56;;;;;;;10.60;7.85;;;;;;;27.74;63.47;98472.44;5027908;28;20121;-83
2023/08/16 10:41:21;;;;;;;10.40;8.30;;;;;;;28.05;64.39;98489.22;5030518;28;20033;-84
2023/08/16 10:43:51;;;;;;;9.48;8.48;;;;;;;28.43;62.28;98505.31;5015437;28;20056;-83
2023/08/16 10:46:30;;;;;;;8.98;8.07;;;;;;;28.54;61.62;98510.00;5043454;28;20045;-80
2023/08/16 10:49:00;;;;;;;9.63;7.93;;;;;;;28.21;61.17;98454.06;5025197;28;20040;-80
2023/08/16 10:51:26;;;;;;;9.18;6.60;;;;;;;28.69;57.86;98506.50;4996849;28;20029;-83
2023/08/16 10:53:59;;;;;;;6.72;6.18;;;;;;;28.69;56.68;98503.72;5021466;28;20033;-81
2023/08/16 10:56:37;;;;;;;7.45;6.60;;;;;;;29.02;57.42;98506.16;5015318;28;20037;-80
2023/08/16 10:59:10;;;;;;;7.57;6.82;;;;;;;28.77;57.99;98470.63;5015286;28;20131;-82
2023/08/16 11:01:43;;;;;;;8.40;6.40;;;;;;;28.89;56.56;98506.59;5045592;28;20037;-85
2023/08/16 11:04:09;;;;;;;10.05;6.70;;;;;;;29.20;56.58;98506.63;5007657;28;20037;-83
2023/08/16 11:06:39;;;;;;;6.95;6.07;;;;;;;29.40;55.35;98500.00;5014980;28;20026;-84
2023/08/16 11:09:07;;;;;;;6.60;6.00;;;;;;;29.42;54.92;98503.22;5011934;28;20795;-83
2023/08/16 11:11:36;;;;;;;6.35;5.75;;;;;;;29.34;55.59;98501.41;5016512;28;20037;-82
2023/08/16 11:14:01;;;;;;;5.38;4.95;;;;;;;29.43;54.93;98504.81;5011556;28;20422;-83
2023/08/16 11:16:27;;;;;;;6.13;5.53;;;;;;;29.42;54.19;98503.22;5005712;28;20500;-84
2023/08/16 11:18:59;;;;;;;7.30;5.90;;;;;;;29.12;55.04;98466.78;5011628;28;20038;-81
2023/08/16 11:21:26;;;;;;;6.20;5.60;;;;;;;29.16;54.10;98505.69;5016600;28;20052;-86
2023/08/16 11:23:54;;;;;;;6.28;5.00;;;;;;;29.19;55.25;98474.50;5010215;28;20025;-84
2023/08/16 11:26:20;;;;;;;6.80;5.32;;;;;;;29.30;53.58;98506.09;5006832;28;20095;-83
2023/08/16 11:28:46;;;;;;;7.10;5.20;;;;;;;29.40;53.67;98495.25;5027005;28;20030;-83
2023/08/16 11:31:12;;;;;;;5.90;4.82;;;;;;;29.11;53.35;98442.16;5031469;28;20068;-81
2023/08/16 11:33:42;;;;;;;7.50;5.40;;;;;;;29.53;53.66;98493.16;5025816;28;20017;-80
2023/08/16 11:36:10;;;;;;;5.68;4.82;;;;;;;29.63;53.67;98492.59;5022666;28;20042;-84
2023/08/16 11:38:35;;;;;;;6.25;5.35;;;;;;;29.42;54.42;98478.22;5030095;28;20025;-84
2023/08/16 11:41:01;;;;;;;5.82;5.22;;;;;;;29.09;53.50;98491.66;5015029;28;20041;-82
2023/08/16 11:43:28;;;;;;;5.55;5.05;;;;;;;29.28;54.12;98497.31;5025701;28;20029;-80
2023/08/16 11:45:54;;;;;;;6.50;5.32;;;;;;;29.14;53.04;98480.28;5005509;28;20037;-80
2023/08/16 11:48:19;;;;;;;6.80;5.18;;;;;;;29.17;54.28;98485.13;5008709;28;20026;-83
2023/08/16 11:50:45;;;;;;;5.43;4.93;;;;;;;29.22;52.84;98482.13;5024182;28;20033;-78
2023/08/16 11:53:16;;;;;;;7.57;5.20;;;;;;;29.17;53.96;98485.13;5003870;28;20017;-78
2023/08/16 11:55:41;;;;;;;7.20;5.72;;;;;;;28.82;54.22;98434.31;5017941;28;20116;-81
2023/08/16 11:58:11;;;;;;;6.80;5.40;;;;;;;29.00;57.12;98479.94;5008340;28;20121;-81
2023/08/16 12:00:38;;;;;;;5.70;5.10;;;;;;;28.97;57.88;98475.09;5014307;28;20107;-82
2023/08/16 12:03:05;;;;;;;6.30;5.70;;;;;;;28.73;57.43;98476.88;5009125;28;20028;-85
2023/08/16 12:05:36;;;;;;;6.43;5.82;;;;;;;28.87;57.42;98475.66;5024860;28;20128;-81
2023/08/16 12:08:08;;;;;;;6.32;5.60;;;;;;;28.96;57.42;98473.50;5008843;28;20044;-84
2023/08/16 12:10:34;;;;;;;8.07;5.43;;;;;;;28.90;57.35;98464.63;5031325;28;20044;-85
2023/08/16 12:13:13;;;;;;;6.65;5.97;;;;;;;29.03;56.33;98473.69;5013019;28;20017;-82
2023/08/16 12:15:41;;;;;;;6.55;5.93;;;;;;;28.93;55.49;98458.38;5041383;28;20033;-83
2023/08/16 12:18:06;;;;;;;6.22;5.30;;;;;;;29.07;54.99;98455.16;5021050;28;20037;-80
2023/08/16 12:20:32;;;;;;;7.30;5.68;;;;;;;29.10;55.88;98462.75;5014857;28;20047;-83
2023/08/16 12:22:58;;;;;;;7.30;5.53;;;;;;;29.03;54.90;98440.41;5030255;28;20082;-81
2023/08/16 12:25:24;;;;;;;6.25;5.65;;;;;;;29.20;55.10;98456.69;5041743;28;20498;-83
2023/08/16 12:27:49;;;;;;;6.70;6.03;;;;;;;29.16;55.80;98455.75;5021583;28;20021;-82
2023/08/16 12:30:15;;;;;;;7.03;5.57;;;;;;;29.24;56.85;98452.81;5017377;28;20029;-83
2023/08/16 12:32:41;;;;;;;10.40;5.65;;;;;;;29.23;55.75;98451.22;5008319;28;20543;-84
2023/08/16 12:35:08;;;;;;;8.55;5.85;;;;;;;29.08;55.46;98454.78;5014499;28;20033;-84
2023/08/16 12:37:33;;;;;;;6.18;5.57;;;;;;;28.99;56.15;98445.03;5029606;28;20072;-82
2023/08/16 12:39:59;;;;;;;9.27;5.43;;;;;;;28.80;56.88;98414.47;4994496;28;20451;-83
2023/08/16 12:42:25;;;;;;;7.20;5.82;;;;;;;28.94;55.41;98453.66;5023652;28;20036;-84
2023/08/16 12:44:52;;;;;;;8.18;5.80;;;;;;;28.98;55.07;98437.88;4985285;28;20094;-83
2023/08/16 12:47:17;;;;;;;7.30;5.70;;;;;;;29.14;54.71;98442.25;4994374;28;20030;-83
2023/08/16 12:49:44;;;;;;;6.63;5.65;;;;;;;29.35;55.75;98458.63;5028177;28;20071;-83
2023/08/16 12:52:13;;;;;;;6.35;5.75;;;;;;;29.46;56.87;98448.56;5028786;28;20040;-80
2023/08/16 12:54:46;;;;;;;9.02;5.57;;;;;;;29.10;55.75;98385.88;5021792;28;20040;-85
2023/08/16 12:57:13;;;;;;;7.22;6.53;;;;;;;29.42;56.15;98419.94;5039446;28;20048;-81
2023/08/16 12:59:40;;;;;;;8.45;5.90;;;;;;;29.45;54.93;98446.97;5026910;28;20138;-82
2023/08/16 13:02:09;;;;;;;6.25;5.63;;;;;;;29.46;55.38;98437.47;5030614;28;20124;-83
2023/08/16 13:04:38;;;;;;;7.18;5.90;;;;;;;29.49;56.71;98436.75;5008638;28;20025;-83
2023/08/16 13:07:49;;;;;;;6.88;6.18;;;;;;;29.38;56.27;98407.97;5020469;28;20041;-83
2023/08/16 13:10:46;;;;;;;6.20;5.68;;;;;;;29.65;54.53;98440.28;5036130;28;21703;-83
2023/08/16 13:13:15;;;;;;;6.18;5.60;;;;;;;29.63;54.37;98441.81;5045511;28;20044;-83
2023/08/16 13:15:40;;;;;;;8.07;5.93;;;;;;;29.52;54.28;98413.03;5006234;28;20025;-83
2023/08/16 13:18:09;;;;;;;6.78;5.90;;;;;;;29.89;55.38;98428.94;5039539;28;20183;-82
2023/08/16 13:20:35;;;;;;;9.10;6.53;;;;;;;30.04;54.84;98428.03;5000041;28;20032;-83
2023/08/16 13:23:11;;;;;;;7.30;6.15;;;;;;;30.18;55.30;98413.63;5028650;28;20033;-83
2023/08/16 13:25:57;;;;;;;7.55;6.75;;;;;;;30.29;55.68;98416.63;5031074;28;20029;-82
2023/08/16 13:28:25;;;;;;;8.50;6.05;;;;;;;30.86;53.68;98416.47;5033887;28;20037;-82
2023/08/16 13:31:00;;;;;;;6.40;5.57;;;;;;;31.51;51.25;98405.22;5012309;28;20022;-82
2023/08/16 13:33:25;;;;;;;6.53;5.93;;;;;;;31.95;50.86;98408.97;5012742;28;20087;-82
2023/08/16 13:35:53;;;;;;;9.15;6.03;;;;;;;32.07;49.41;98400.34;5028334;28;20033;-83